Alpha, Illinois
Current Conditions -  °F | °C
As of 8:46 AM on Thursday 27 Nov 2014 (Local Time) from KMLI Reporting Station
Light Snow Light Snow  
Wind Chill:   Ceiling: 1400
Heat Index: 21°   Visibility: 2mi
Dew Point: 16°   Wind: 13mph
Humidity: 80%   Direction: 290°WNW
Pressure: 30.42"   Gusts: NA
Location:  41.19°N, 90.38°W
Report Text: KMLI 271446Z 29011KT 2SM -SN BKN014 BKN025 OVC042 M06/M09 A3042 RMK AO2 P0000 $
Loading
Personal Weather Stations






























Interactive Weather Map New forecast layout! Learn more

10-Day Weather Forecast

Advertisements
Track Severe Weather on mobile